createdAt,value
2023-03-08T00:03:56.360Z,1.23
2023-03-08T00:09:02.356Z,1.26
2023-03-08T00:14:05.862Z,1.27
2023-03-08T00:19:09.379Z,1.29
2023-03-08T00:24:16.909Z,1.28
2023-03-08T00:29:20.443Z,1.30
2023-03-08T00:34:23.927Z,1.35
2023-03-08T00:39:27.338Z,1.36
2023-03-08T00:44:31.058Z,1.33
2023-03-08T00:49:34.484Z,1.30
2023-03-08T00:54:38.405Z,1.28
2023-03-08T00:59:41.916Z,1.21
2023-03-08T01:04:45.428Z,1.13
2023-03-08T01:09:49.357Z,1.10
2023-03-08T01:14:54.028Z,1.08
2023-03-08T01:19:58.124Z,1.00
2023-03-08T01:25:01.745Z,0.96
2023-03-08T01:30:05.832Z,0.94
2023-03-08T01:35:10.004Z,0.94
2023-03-08T01:40:16.703Z,0.93
2023-03-08T01:45:57.890Z,0.93
2023-03-08T01:51:04.601Z,0.80
2023-03-08T01:56:11.820Z,0.76
2023-03-08T02:01:16.130Z,0.74
2023-03-08T02:06:20.141Z,0.79
2023-03-08T02:11:25.659Z,0.87
2023-03-08T02:16:29.430Z,0.94
2023-03-08T02:21:33.461Z,1.07
2023-03-08T02:26:38.238Z,1.07
2023-03-08T02:31:41.720Z,1.01
2023-03-08T02:36:45.130Z,0.88
2023-03-08T02:41:48.765Z,0.77
2023-03-08T02:46:53.291Z,0.62
2023-03-08T02:51:56.702Z,0.46
2023-03-08T02:57:00.163Z,0.38
2023-03-08T03:02:03.837Z,0.28
2023-03-08T03:07:07.572Z,0.16
2023-03-08T03:12:11.073Z,-0.01
2023-03-08T03:17:14.589Z,-0.08
2023-03-08T03:22:18.205Z,-0.17
2023-03-08T03:27:21.716Z,-0.21
2023-03-08T03:32:25.662Z,-0.27
2023-03-08T03:37:29.151Z,-0.32
2023-03-08T03:42:32.565Z,-0.38
2023-03-08T03:47:36.186Z,-0.39
2023-03-08T03:52:39.809Z,-0.44
2023-03-08T03:57:44.248Z,-0.50
2023-03-08T04:02:47.595Z,-0.50
2023-03-08T04:07:51.178Z,-0.56
2023-03-08T04:12:54.794Z,-0.62
2023-03-08T04:17:58.519Z,-0.63
2023-03-08T04:23:02.033Z,-0.66
2023-03-08T04:28:05.405Z,-0.72
2023-03-08T04:33:09.576Z,-0.74
2023-03-08T04:38:13.190Z,-0.77
2023-03-08T04:43:16.708Z,-0.82
2023-03-08T04:48:20.533Z,-0.90
2023-03-08T04:53:24.964Z,-0.93
2023-03-08T04:58:29.095Z,-0.96
2023-03-08T05:03:32.713Z,-1.03
2023-03-08T05:08:36.843Z,-1.08
2023-03-08T05:13:40.366Z,-1.15
2023-03-08T05:18:44.088Z,-1.12
2023-03-08T05:23:47.594Z,-1.12
2023-03-08T05:28:51.095Z,-1.14
2023-03-08T05:33:54.729Z,-1.10
2023-03-08T05:38:58.137Z,-1.07
2023-03-08T05:44:02.678Z,-1.05
2023-03-08T05:49:07.323Z,-0.97
2023-03-08T05:54:10.835Z,-0.94
2023-03-08T05:59:14.537Z,-0.89
2023-03-08T06:04:17.964Z,-0.83
2023-03-08T06:09:21.582Z,-0.74
2023-03-08T06:14:25.607Z,-0.62
2023-03-08T06:19:29.129Z,-0.53
2023-03-08T06:24:32.641Z,-0.46
2023-03-08T06:29:36.464Z,-0.37
2023-03-08T06:34:40.289Z,-0.30
2023-03-08T06:39:43.726Z,-0.20
2023-03-08T06:44:47.323Z,-0.12
2023-03-08T06:49:52.485Z,-0.01
2023-03-08T06:54:55.892Z,0.08
2023-03-08T06:59:59.510Z,0.16
2023-03-08T07:05:03.125Z,0.24
2023-03-08T07:10:07.340Z,0.30
2023-03-08T07:15:14.731Z,0.40
2023-03-08T07:20:20.740Z,0.53
2023-03-08T07:25:24.247Z,0.63
2023-03-08T07:30:27.785Z,0.74
2023-03-08T07:35:31.384Z,0.85
2023-03-08T07:40:35.001Z,0.98
2023-03-08T07:45:40.064Z,1.05
2023-03-08T07:50:43.571Z,1.13
2023-03-08T07:55:47.191Z,1.22
2023-03-08T08:00:50.710Z,1.25
2023-03-08T08:05:54.321Z,1.41
2023-03-08T08:10:57.839Z,1.49
2023-03-08T08:16:03.179Z,1.57
2023-03-08T08:21:09.476Z,1.52
2023-03-08T08:26:21.795Z,1.56
2023-03-08T08:31:31.257Z,1.76
2023-03-08T08:36:34.769Z,1.80
2023-03-08T08:41:38.384Z,2.07
2023-03-08T08:46:42.002Z,2.13
2023-03-08T08:51:45.627Z,2.10
2023-03-08T08:56:49.241Z,2.09
2023-03-08T09:01:52.753Z,2.35
2023-03-08T09:06:56.369Z,2.55
2023-03-08T09:11:59.987Z,2.61
2023-03-08T09:17:07.004Z,2.67
2023-03-08T09:22:11.648Z,2.75
2023-03-08T09:27:15.045Z,3.14
2023-03-08T09:32:18.840Z,3.39
2023-03-08T09:37:22.281Z,3.76
2023-03-08T09:42:34.244Z,3.88
2023-03-08T09:48:07.194Z,3.84
2023-03-08T09:53:22.567Z,3.89
2023-03-08T09:58:42.294Z,3.88
2023-03-08T10:04:12.193Z,4.14
2023-03-08T10:09:51.783Z,4.42
2023-03-08T10:15:18.542Z,4.69
2023-03-08T10:20:30.252Z,4.87
2023-03-08T10:25:35.037Z,5.09
2023-03-08T10:30:45.006Z,5.15
2023-03-08T10:36:12.786Z,5.15
2023-03-08T10:41:18.314Z,5.20
2023-03-08T10:46:28.561Z,5.27
2023-03-08T10:51:32.102Z,5.34
2023-03-08T10:56:51.391Z,5.41
2023-03-08T11:01:59.409Z,5.30
2023-03-08T11:07:17.155Z,5.33
2023-03-08T11:12:26.669Z,5.38
2023-03-08T11:17:39.668Z,5.55
2023-03-08T11:22:59.343Z,5.64
2023-03-08T11:28:18.326Z,5.72
2023-03-08T11:33:40.904Z,5.70
2023-03-08T11:38:54.639Z,5.67
2023-03-08T11:43:58.883Z,5.60
2023-03-08T11:49:21.343Z,5.32
2023-03-08T11:54:30.889Z,5.06
2023-03-08T11:59:36.959Z,4.96
2023-03-08T12:05:08.493Z,4.80
2023-03-08T12:10:30.255Z,4.68
2023-03-08T12:15:38.184Z,4.92
2023-03-08T12:20:44.177Z,5.15
2023-03-08T12:25:53.108Z,5.10
2023-03-08T12:31:24.784Z,4.96
2023-03-08T12:36:42.252Z,4.87
2023-03-08T12:42:08.891Z,4.93
2023-03-08T12:47:12.407Z,4.92
2023-03-08T12:52:19.314Z,4.72
2023-03-08T12:57:28.492Z,4.74
2023-03-08T13:02:34.740Z,4.79
2023-03-08T13:07:47.565Z,4.83
2023-03-08T13:13:20.546Z,4.86
2023-03-08T13:18:42.535Z,5.27
2023-03-08T13:24:36.129Z,5.56
2023-03-08T13:29:43.552Z,5.92
2023-03-08T13:35:14.273Z,6.06
2023-03-08T13:40:20.681Z,6.04
2023-03-08T13:45:24.885Z,5.78
2023-03-08T13:50:32.105Z,5.58
2023-03-08T13:55:40.306Z,5.61
2023-03-08T14:00:43.737Z,5.91
2023-03-08T14:05:47.267Z,6.25
2023-03-08T14:11:06.760Z,6.50
2023-03-08T14:16:24.668Z,6.54
2023-03-08T14:21:30.209Z,5.96
2023-03-08T14:26:41.363Z,5.43
2023-03-08T14:32:11.136Z,5.08
2023-03-08T14:37:35.071Z,4.86
2023-03-08T14:42:47.292Z,4.76
2023-03-08T14:47:58.346Z,4.84
2023-03-08T14:53:04.269Z,5.12
2023-03-08T14:58:14.122Z,5.35
2023-03-08T15:03:17.524Z,5.35
2023-03-08T15:08:21.930Z,5.27
2023-03-08T15:13:25.279Z,4.99
2023-03-08T15:18:28.890Z,4.79
2023-03-08T15:23:35.783Z,4.57
2023-03-08T15:28:39.202Z,4.36
2023-03-08T15:33:42.709Z,4.15
2023-03-08T15:38:46.346Z,3.97
2023-03-08T15:43:49.944Z,3.83
2023-03-08T15:48:53.464Z,3.68
2023-03-08T15:53:57.078Z,3.47
2023-03-08T15:59:00.523Z,3.35
2023-03-08T16:04:04.620Z,3.31
2023-03-08T16:09:08.141Z,3.22
2023-03-08T16:14:17.899Z,3.08
2023-03-08T16:19:21.319Z,2.96
2023-03-08T16:24:24.863Z,2.83
2023-03-08T16:29:28.454Z,2.70
2023-03-08T16:34:32.350Z,2.58
2023-03-08T16:39:36.099Z,2.44
2023-03-08T16:44:40.055Z,2.32
2023-03-08T16:49:43.435Z,2.26
2023-03-08T16:54:46.954Z,2.21
2023-03-08T16:59:50.585Z,2.16
2023-03-08T17:04:54.289Z,2.12
2023-03-08T17:09:58.649Z,2.07
2023-03-08T17:15:05.001Z,2.01
2023-03-08T17:20:09.871Z,1.96
2023-03-08T17:25:13.364Z,1.90
2023-03-08T17:30:17.297Z,1.84
2023-03-08T17:35:20.781Z,1.83
2023-03-08T17:40:24.325Z,1.85
2023-03-08T17:45:29.379Z,1.87
2023-03-08T17:50:34.736Z,1.90
2023-03-08T17:55:41.977Z,1.92
2023-03-08T18:00:45.758Z,1.90
2023-03-08T18:05:53.752Z,1.92
2023-03-08T18:10:57.500Z,1.86
2023-03-08T18:16:00.956Z,1.78
2023-03-08T18:21:13.366Z,1.72
2023-03-08T18:26:19.554Z,1.70
2023-03-08T18:31:26.626Z,1.70
2023-03-08T18:36:30.539Z,1.69
2023-03-08T18:41:34.671Z,1.67
2023-03-08T18:46:38.101Z,1.68
2023-03-08T18:51:43.159Z,1.67
2023-03-08T18:56:50.081Z,1.65
2023-03-08T19:01:54.526Z,1.62
2023-03-08T19:06:58.194Z,1.57
2023-03-08T19:12:05.695Z,1.58
2023-03-08T19:17:09.178Z,1.51
2023-03-08T19:22:12.728Z,1.51
2023-03-08T19:27:16.347Z,1.51
2023-03-08T19:32:20.245Z,1.49
2023-03-08T19:37:23.992Z,1.44
2023-03-08T19:42:27.440Z,1.40
2023-03-08T19:47:31.032Z,1.42
2023-03-08T19:52:34.521Z,1.48
2023-03-08T19:57:38.467Z,1.51
2023-03-08T20:02:45.979Z,1.45
2023-03-08T20:07:49.469Z,1.55
2023-03-08T20:12:53.112Z,1.60
2023-03-08T20:17:56.834Z,1.62
2023-03-08T20:23:00.155Z,1.61
2023-03-08T20:28:03.858Z,1.62
2023-03-08T20:33:07.269Z,1.60
2023-03-08T20:38:10.889Z,1.68
2023-03-08T20:43:14.521Z,1.71
2023-03-08T20:48:18.145Z,1.68
2023-03-08T20:53:21.539Z,1.74
2023-03-08T20:58:26.589Z,1.82
2023-03-08T21:03:29.938Z,1.85
2023-03-08T21:08:33.420Z,1.93
2023-03-08T21:13:37.544Z,1.98
2023-03-08T21:18:46.070Z,2.01
2023-03-08T21:23:51.457Z,1.99
2023-03-08T21:29:01.887Z,1.97
2023-03-08T21:34:07.226Z,2.00
2023-03-08T21:39:12.148Z,1.97
2023-03-08T21:44:18.434Z,1.90
2023-03-08T21:49:24.896Z,1.89
2023-03-08T21:54:30.254Z,1.83
2023-03-08T21:59:33.756Z,1.79
2023-03-08T22:04:39.532Z,1.79
2023-03-08T22:09:43.057Z,1.87
2023-03-08T22:14:46.451Z,1.70
2023-03-08T22:19:51.343Z,1.50
2023-03-08T22:24:54.823Z,1.34
2023-03-08T22:29:58.636Z,1.24
2023-03-08T22:35:02.074Z,1.17
2023-03-08T22:40:11.003Z,1.00
2023-03-08T22:45:14.925Z,0.89
2023-03-08T22:50:18.670Z,0.84
2023-03-08T22:55:22.156Z,0.81
2023-03-08T23:00:26.391Z,0.68
2023-03-08T23:05:29.901Z,0.57
2023-03-08T23:10:34.908Z,0.55
2023-03-08T23:15:38.483Z,0.46
2023-03-08T23:20:42.122Z,0.40
2023-03-08T23:25:45.808Z,0.33
2023-03-08T23:30:49.325Z,0.22
2023-03-08T23:35:53.018Z,0.14
2023-03-08T23:40:56.662Z,0.06
2023-03-08T23:46:00.222Z,-0.02
2023-03-08T23:51:10.194Z,-0.08
2023-03-08T23:56:27.058Z,-0.10
